Time;durP1;ratioP1;P1;durP2;ratioP2;P2;SDS_P1;SDS_P2;PMS_P1;PMS_P2;Temp;Humidity;BMP_temperature;BMP_pressure;BME280_temperature;BME280_humidity;BME280_pressure;Samples;Min_cycle;Max_cycle;Signal;HPM_P1;HPM_P2
2021/10/29 00:02:22;;;;;;;14.13;9.53;;;;;;;8.73;77.94;95736.88;5096664;28;20499;-83
2021/10/29 00:04:49;;;;;;;13.70;9.83;;;;;;;8.73;77.93;95730.81;5096910;28;20462;-85
2021/10/29 00:07:16;;;;;;;16.23;9.70;;;;;;;8.74;78.05;95725.47;5097492;28;20450;-85
2021/10/29 00:09:43;;;;;;;11.00;8.40;;;;;;;8.72;77.93;95722.13;5097179;28;20440;-85
2021/10/29 00:12:11;;;;;;;12.10;8.67;;;;;;;8.69;78.03;95719.72;5096747;28;20993;-85
2021/10/29 00:14:41;;;;;;;11.60;8.53;;;;;;;8.70;78.10;95721.38;5044737;28;20509;-85
2021/10/29 00:17:09;;;;;;;14.00;8.23;;;;;;;8.61;78.00;95712.31;5096503;28;20448;-85
2021/10/29 00:19:36;;;;;;;14.07;8.60;;;;;;;8.55;78.26;95720.56;5096808;28;20532;-85
2021/10/29 00:22:04;;;;;;;11.33;7.83;;;;;;;8.43;78.74;95712.69;5096281;28;21021;-85
2021/10/29 00:24:31;;;;;;;13.27;8.47;;;;;;;8.37;79.21;95719.09;5096561;28;20444;-85
2021/10/29 00:26:58;;;;;;;14.00;9.70;;;;;;;8.34;79.49;95717.53;5096071;28;20946;-84
2021/10/29 00:29:25;;;;;;;19.60;13.07;;;;;;;8.29;79.67;95716.94;5096354;28;20531;-84
2021/10/29 00:31:54;;;;;;;12.03;9.50;;;;;;;8.24;79.74;95707.72;5096431;28;20543;-85
2021/10/29 00:34:21;;;;;;;14.60;10.40;;;;;;;8.21;79.92;95721.81;5096020;28;21056;-85
2021/10/29 00:36:48;;;;;;;14.67;11.40;;;;;;;8.14;79.86;95725.75;5096189;28;20444;-85
2021/10/29 00:39:16;;;;;;;14.90;9.40;;;;;;;8.08;80.03;95720.88;5096114;28;20444;-85
2021/10/29 00:41:43;;;;;;;12.03;9.83;;;;;;;8.08;80.12;95720.88;5096137;28;20487;-85
2021/10/29 00:44:10;;;;;;;14.20;10.83;;;;;;;8.03;80.04;95721.19;5096429;28;20455;-85
2021/10/29 00:46:38;;;;;;;16.73;10.67;;;;;;;8.02;80.29;95716.88;5043951;28;20479;-85
2021/10/29 00:49:06;;;;;;;14.20;9.43;;;;;;;8.02;80.56;95711.66;5096035;28;20450;-85
2021/10/29 00:51:33;;;;;;;13.60;10.13;;;;;;;8.04;80.79;95712.41;5095525;28;20491;-85
2021/10/29 00:54:00;;;;;;;16.10;10.17;;;;;;;8.02;81.06;95703.81;5096197;28;20468;-85
2021/10/29 00:56:27;;;;;;;13.27;9.40;;;;;;;8.06;80.92;95704.47;5095954;28;20860;-85
2021/10/29 00:58:55;;;;;;;14.10;11.07;;;;;;;8.04;80.58;95704.56;5095675;28;20472;-85
2021/10/29 01:01:22;;;;;;;14.53;8.00;;;;;;;7.96;81.71;95703.34;5095715;28;20519;-85
2021/10/29 01:03:52;;;;;;;9.27;8.10;;;;;;;7.88;83.01;95696.00;5095745;28;20523;-84
2021/10/29 01:06:20;;;;;;;14.10;9.43;;;;;;;7.84;83.98;95686.69;5043448;28;20436;-85
2021/10/29 01:08:47;;;;;;;13.10;8.37;;;;;;;7.73;84.41;95681.25;5095275;28;20473;-85
2021/10/29 01:11:17;;;;;;;12.33;8.60;;;;;;;7.78;84.96;95687.03;5095272;28;20958;-85
2021/10/29 01:13:48;;;;;;;10.53;8.20;;;;;;;7.81;84.39;95678.19;5095301;28;20791;-84
2021/10/29 01:16:15;;;;;;;12.23;9.03;;;;;;;7.72;85.08;95680.41;5095569;28;20523;-83
2021/10/29 01:18:43;;;;;;;12.80;8.57;;;;;;;7.72;84.38;95662.13;5095361;28;20523;-85
2021/10/29 01:21:11;;;;;;;16.83;13.77;;;;;;;7.82;84.24;95670.25;5095194;28;20543;-84
2021/10/29 01:23:39;;;;;;;14.63;9.50;;;;;;;7.72;84.32;95667.34;5095740;28;20471;-85
2021/10/29 01:26:08;;;;;;;12.83;9.37;;;;;;;7.64;84.65;95664.38;5095000;28;20448;-85
2021/10/29 01:28:35;;;;;;;14.97;9.57;;;;;;;7.59;84.94;95671.66;5095059;28;20523;-85
2021/10/29 01:31:03;;;;;;;13.80;9.20;;;;;;;7.55;85.18;95674.53;5095440;28;20439;-85
2021/10/29 01:33:30;;;;;;;15.77;9.07;;;;;;;7.50;85.02;95668.72;5094784;28;20543;-85
2021/10/29 01:35:58;;;;;;;13.13;9.00;;;;;;;7.50;85.05;95666.97;5094784;28;20460;-85
2021/10/29 01:38:32;;;;;;;13.10;9.20;;;;;;;7.43;85.87;95679.56;5094654;28;20931;-82
2021/10/29 01:40:59;;;;;;;11.07;8.23;;;;;;;7.46;85.77;95668.91;5094526;28;20479;-83
2021/10/29 01:43:27;;;;;;;11.83;9.60;;;;;;;7.34;86.57;95677.50;5094937;28;20495;-82
2021/10/29 01:45:54;;;;;;;17.30;9.73;;;;;;;7.34;86.65;95679.28;5059184;28;20445;-83
2021/10/29 01:48:21;;;;;;;11.00;9.50;;;;;;;7.40;86.24;95677.13;5094521;28;20796;-82
2021/10/29 01:50:48;;;;;;;14.20;9.90;;;;;;;7.43;86.33;95674.34;5094860;28;20451;-82
2021/10/29 01:53:15;;;;;;;16.80;10.43;;;;;;;7.46;86.26;95674.13;5094398;28;20535;-83
2021/10/29 01:55:44;;;;;;;15.50;10.00;;;;;;;7.53;85.39;95684.25;5094557;28;20922;-82
2021/10/29 01:58:11;;;;;;;15.37;12.00;;;;;;;7.60;85.52;95686.38;5094247;28;20571;-83
2021/10/29 02:00:38;;;;;;;12.90;10.00;;;;;;;7.67;85.50;95695.53;5094321;28;20451;-83
2021/10/29 02:03:05;;;;;;;22.50;11.20;;;;;;;7.75;85.24;95698.50;5093685;28;20488;-83
2021/10/29 02:05:32;;;;;;;16.70;10.80;;;;;;;7.79;85.23;95699.16;5094402;28;21008;-84
2021/10/29 02:07:59;;;;;;;14.80;10.83;;;;;;;7.78;84.43;95690.47;5094508;28;20462;-83
2021/10/29 02:10:26;;;;;;;16.43;12.80;;;;;;;7.81;84.31;95688.63;5094638;28;20464;-83
2021/10/29 02:12:54;;;;;;;17.43;11.23;;;;;;;7.78;84.38;95681.78;5058926;28;20443;-83
2021/10/29 02:15:21;;;;;;;22.20;10.40;;;;;;;7.69;84.82;95672.75;5094330;28;20451;-83
2021/10/29 02:17:48;;;;;;;17.83;11.10;;;;;;;7.59;85.25;95674.25;5100096;28;20445;-86
2021/10/29 02:20:15;;;;;;;17.60;11.17;;;;;;;7.54;85.21;95683.31;5094899;28;20447;-84
2021/10/29 02:22:42;;;;;;;19.50;11.30;;;;;;;7.40;86.03;95678.91;5094321;28;20527;-85
2021/10/29 02:25:10;;;;;;;17.20;10.73;;;;;;;7.28;87.06;95669.19;5093829;28;20498;-85
2021/10/29 02:27:37;;;;;;;18.33;11.10;;;;;;;7.23;86.78;95671.22;5093502;28;20518;-85
2021/10/29 02:30:07;;;;;;;16.10;9.90;;;;;;;7.10;87.61;95676.34;5093758;28;20456;-85
2021/10/29 02:32:34;;;;;;;21.50;12.93;;;;;;;7.06;87.82;95669.63;5093850;28;20444;-84
2021/10/29 02:35:01;;;;;;;20.23;12.10;;;;;;;7.10;88.18;95679.78;5093738;28;20437;-85
2021/10/29 02:37:28;;;;;;;13.83;10.60;;;;;;;7.08;88.10;95678.19;5041768;28;20938;-84
2021/10/29 02:39:56;;;;;;;16.40;11.53;;;;;;;7.07;88.35;95666.06;5093853;28;20780;-84
2021/10/29 02:42:23;;;;;;;20.10;12.77;;;;;;;7.03;87.67;95660.19;5094549;28;20483;-84
2021/10/29 02:44:50;;;;;;;15.13;11.47;;;;;;;7.11;88.24;95665.81;5094267;28;20448;-85
2021/10/29 02:47:18;;;;;;;18.97;12.67;;;;;;;6.96;88.21;95661.50;5094309;28;20895;-84
2021/10/29 02:49:45;;;;;;;15.07;12.00;;;;;;;6.99;88.59;95660.47;5094281;28;20444;-84
2021/10/29 02:52:12;;;;;;;14.30;11.60;;;;;;;7.04;87.97;95666.25;5093720;28;20451;-84
2021/10/29 02:54:39;;;;;;;17.27;11.07;;;;;;;6.99;88.49;95668.31;5092962;28;20448;-84
2021/10/29 02:57:07;;;;;;;16.37;11.90;;;;;;;7.00;88.06;95668.22;5092813;28;20535;-85
2021/10/29 02:59:34;;;;;;;19.97;12.83;;;;;;;7.05;88.29;95678.38;5092727;28;20472;-85
2021/10/29 03:02:01;;;;;;;15.40;11.70;;;;;;;7.01;88.33;95667.28;5093786;28;20455;-85
2021/10/29 03:04:30;;;;;;;18.23;12.37;;;;;;;7.11;88.33;95676.25;5074852;28;20545;-85
2021/10/29 03:06:57;;;;;;;17.75;12.85;;;;;;;7.26;87.77;95677.13;5093731;28;20494;-85
2021/10/29 03:09:24;;;;;;;17.77;12.70;;;;;;;7.43;86.96;95684.78;5093692;28;20292;-84
2021/10/29 03:11:51;;;;;;;29.27;18.30;;;;;;;7.54;85.95;95680.69;5093867;28;20821;-85
2021/10/29 03:14:18;;;;;;;23.30;14.83;;;;;;;7.60;85.32;95683.78;5093622;28;20528;-84
2021/10/29 03:16:45;;;;;;;18.10;12.30;;;;;;;7.59;85.44;95684.72;5098158;28;20450;-84
2021/10/29 03:19:12;;;;;;;20.90;13.97;;;;;;;7.66;84.71;95672.94;5097507;28;20440;-84
2021/10/29 03:21:41;;;;;;;19.33;13.20;;;;;;;7.71;84.21;95683.13;5097741;28;20443;-84
2021/10/29 03:24:08;;;;;;;21.20;13.77;;;;;;;7.76;84.41;95683.66;5097488;28;21032;-84
2021/10/29 03:26:35;;;;;;;21.47;13.23;;;;;;;7.75;84.54;95680.22;5097486;28;20493;-84
2021/10/29 03:29:02;;;;;;;17.50;12.03;;;;;;;7.78;83.89;95685.25;5097572;28;20444;-84
2021/10/29 03:31:29;;;;;;;17.40;12.40;;;;;;;7.77;84.00;95672.28;5097168;28;20535;-84
2021/10/29 03:33:56;;;;;;;19.50;12.33;;;;;;;7.76;83.77;95675.84;5097850;28;20468;-84
2021/10/29 03:36:23;;;;;;;18.97;12.63;;;;;;;7.73;83.81;95670.78;5097651;28;20446;-85
2021/10/29 03:38:57;;;;;;;20.33;12.17;;;;;;;7.64;83.45;95672.22;5097734;28;20448;-84
2021/10/29 03:41:26;;;;;;;16.50;12.30;;;;;;;7.64;83.68;95668.75;5097807;28;20484;-84
2021/10/29 03:43:57;;;;;;;18.13;13.40;;;;;;;7.64;83.33;95672.22;5097355;28;20484;-84
2021/10/29 03:46:26;;;;;;;30.90;13.20;;;;;;;7.59;84.17;95673.44;5097367;28;20456;-84
2021/10/29 03:49:00;;;;;;;19.00;11.13;;;;;;;7.45;85.13;95669.00;5096904;28;20505;-84
2021/10/29 03:51:29;;;;;;;15.53;11.60;;;;;;;7.30;86.28;95664.72;5097119;28;20498;-83
2021/10/29 03:54:01;;;;;;;15.10;12.30;;;;;;;7.16;88.02;95668.13;5096602;28;20452;-83
2021/10/29 03:56:29;;;;;;;17.83;11.90;;;;;;;7.12;88.46;95675.31;5096776;28;20452;-84
2021/10/29 03:58:59;;;;;;;15.90;11.57;;;;;;;7.18;88.61;95674.09;5096370;28;20483;-84
2021/10/29 04:01:26;;;;;;;18.27;10.97;;;;;;;7.32;88.17;95683.75;5096599;28;20448;-84
2021/10/29 04:03:53;;;;;;;18.67;12.90;;;;;;;7.38;87.67;95686.00;5096527;28;20571;-84
2021/10/29 04:06:20;;;;;;;17.33;13.03;;;;;;;7.42;87.59;95683.09;5096548;28;20442;-84
2021/10/29 04:08:47;;;;;;;16.43;12.73;;;;;;;7.52;87.19;95678.19;5097010;28;20471;-85
2021/10/29 04:11:20;;;;;;;17.27;11.80;;;;;;;7.56;86.48;95671.84;5096925;28;20880;-84
2021/10/29 04:13:48;;;;;;;17.77;11.70;;;;;;;7.63;85.92;95677.53;5063179;28;20446;-84
2021/10/29 04:16:15;;;;;;;18.60;12.03;;;;;;;7.66;85.35;95679.94;5096318;28;20981;-84
2021/10/29 04:18:42;;;;;;;20.17;13.07;;;;;;;7.66;84.56;95682.56;5061392;28;20806;-84
2021/10/29 04:21:09;;;;;;;20.70;13.07;;;;;;;7.68;84.74;95678.06;5096654;28;20453;-84
2021/10/29 04:23:36;;;;;;;21.70;13.30;;;;;;;7.63;85.17;95665.31;5096132;28;21004;-84
2021/10/29 04:26:03;;;;;;;23.20;14.13;;;;;;;7.58;85.47;95659.53;5095667;28;20523;-84
2021/10/29 04:28:33;;;;;;;18.67;13.73;;;;;;;7.62;85.56;95665.41;5096356;28;20902;-84
2021/10/29 04:31:04;;;;;;;18.57;13.10;;;;;;;7.58;85.97;95659.53;5095955;28;20445;-84
2021/10/29 04:33:31;;;;;;;19.40;13.40;;;;;;;7.50;85.55;95653.06;5060748;28;20445;-83
2021/10/29 04:35:59;;;;;;;17.50;12.57;;;;;;;7.41;86.23;95654.47;5060739;28;20454;-84
2021/10/29 04:38:26;;;;;;;27.73;13.13;;;;;;;7.46;86.56;95647.19;5095774;28;20769;-84
2021/10/29 04:40:53;;;;;;;17.13;12.30;;;;;;;7.37;86.49;95651.22;5096262;28;20555;-84
2021/10/29 04:43:21;;;;;;;16.07;12.63;;;;;;;7.42;86.38;95645.69;5107987;28;20475;-84
2021/10/29 04:45:49;;;;;;;19.10;12.67;;;;;;;7.21;86.07;95663.47;5113189;28;21418;-84
2021/10/29 04:48:16;;;;;;;19.33;14.17;;;;;;;7.18;86.50;95658.44;5116621;28;21004;-84
2021/10/29 04:54:05;;;;;;;22.13;14.00;;;;;;;7.27;85.89;95659.69;5096433;28;20419;-84
2021/10/29 04:56:32;;;;;;;19.50;14.13;;;;;;;7.34;85.95;95653.16;5097025;28;20441;-83
2021/10/29 04:58:59;;;;;;;22.17;14.30;;;;;;;7.35;86.09;95652.22;5096472;28;20484;-83
2021/10/29 05:01:27;;;;;;;23.50;15.67;;;;;;;7.41;85.91;95664.91;5096374;28;20967;-83
2021/10/29 05:03:54;;;;;;;22.03;16.27;;;;;;;7.46;85.71;95662.84;5112913;28;20553;-83
2021/10/29 05:06:21;;;;;;;23.85;16.92;;;;;;;7.49;86.00;95667.06;5115628;28;20439;-83
2021/10/29 05:08:48;;;;;;;21.80;16.23;;;;;;;7.52;85.84;95666.88;5117268;28;20202;-85
2021/10/29 05:11:15;;;;;;;22.33;15.00;;;;;;;7.51;85.35;95665.19;5065752;28;20448;-85
2021/10/29 05:13:42;;;;;;;21.87;15.57;;;;;;;7.65;85.78;95667.81;5116809;28;20519;-85
2021/10/29 05:16:09;;;;;;;24.57;14.00;;;;;;;8.05;85.35;95672.25;5118275;28;20577;-85
2021/10/29 05:18:39;;;;;;;21.83;13.87;;;;;;;8.69;83.74;95678.69;5116574;28;20447;-84
2021/10/29 05:21:06;;;;;;;18.37;11.70;;;;;;;9.35;79.82;95681.34;5117286;28;20463;-85
2021/10/29 05:23:33;;;;;;;14.30;10.67;;;;;;;10.01;76.15;95682.91;5117546;28;20531;-84
2021/10/29 05:26:00;;;;;;;12.50;11.07;;;;;;;10.64;72.76;95687.16;5117242;28;20518;-83
2021/10/29 05:28:27;;;;;;;14.43;11.23;;;;;;;11.36;69.47;95685.34;5117163;28;20436;-85
2021/10/29 05:30:54;;;;;;;17.10;12.43;;;;;;;11.87;66.71;95677.94;5118562;28;20479;-84
2021/10/29 05:33:21;;;;;;;18.57;11.30;;;;;;;12.38;64.79;95690.59;5116443;28;20966;-83
2021/10/29 05:35:49;;;;;;;19.20;13.37;;;;;;;12.88;62.80;95691.81;5117242;28;20448;-83
2021/10/29 05:38:16;;;;;;;15.80;11.13;;;;;;;13.26;60.67;95682.59;5115783;28;20546;-84
2021/10/29 05:40:43;;;;;;;15.23;12.00;;;;;;;13.52;60.54;95686.53;5116514;28;20427;-84
2021/10/29 05:43:10;;;;;;;16.83;13.30;;;;;;;13.97;58.96;95693.34;5116368;28;20975;-83
2021/10/29 05:45:37;;;;;;;15.77;12.33;;;;;;;14.35;57.68;95690.03;5080563;28;20514;-83
2021/10/29 05:48:06;;;;;;;18.43;13.30;;;;;;;14.48;57.95;95699.44;5114221;28;20520;-83
2021/10/29 05:50:35;;;;;;;13.80;10.50;;;;;;;14.80;58.00;95701.03;5062930;28;20480;-83
2021/10/29 05:53:06;;;;;;;20.30;13.27;;;;;;;14.92;55.83;95694.66;5114453;28;20455;-83
2021/10/29 05:55:33;;;;;;;13.07;10.93;;;;;;;14.86;54.80;95695.22;5114365;28;20440;-83
2021/10/29 05:58:00;;;;;;;20.00;12.37;;;;;;;14.48;55.67;95695.97;5107762;28;21059;-82
2021/10/29 06:00:29;;;;;;;14.30;11.60;;;;;;;14.35;56.59;95696.13;5093862;28;20432;-82
2021/10/29 06:02:57;;;;;;;22.60;12.40;;;;;;;14.20;57.82;95700.97;5029770;28;20442;-82
2021/10/29 06:05:24;;;;;;;14.07;11.77;;;;;;;14.20;57.67;95697.47;5074274;28;20531;-83
2021/10/29 06:07:51;;;;;;;15.80;11.37;;;;;;;14.13;57.56;95696.31;5073735;28;20440;-82
2021/10/29 06:10:20;;;;;;;16.27;12.03;;;;;;;14.13;60.16;95699.78;5072991;28;20449;-82
2021/10/29 06:12:47;;;;;;;20.43;12.47;;;;;;;14.06;57.24;95696.00;5073001;28;20441;-82
2021/10/29 06:15:16;;;;;;;18.77;13.03;;;;;;;14.21;58.42;95699.16;5073234;28;20441;-83
2021/10/29 06:17:44;;;;;;;14.27;12.33;;;;;;;14.32;57.52;95700.84;5073419;28;20492;-82
2021/10/29 06:20:13;;;;;;;15.50;12.40;;;;;;;14.48;60.93;95710.00;5073293;28;20445;-83
2021/10/29 06:22:43;;;;;;;12.17;10.53;;;;;;;14.57;56.41;95709.19;5073291;28;20441;-82
2021/10/29 06:25:13;;;;;;;21.30;13.27;;;;;;;14.71;55.80;95715.03;5073844;28;20485;-83
2021/10/29 06:30:26;;;;;;;47.47;15.63;;;;;;;14.61;55.66;95722.13;5073779;28;20433;-82
2021/10/29 06:32:53;;;;;;;103.50;21.53;;;;;;;14.57;57.70;95727.66;5021972;28;20537;-82
2021/10/29 06:35:20;;;;;;;51.80;14.33;;;;;;;14.67;57.73;95721.56;5072960;28;20985;-81
2021/10/29 06:37:47;;;;;;;50.53;14.47;;;;;;;14.72;55.89;95722.84;5073262;28;20877;-82
2021/10/29 06:40:15;;;;;;;60.47;12.97;;;;;;;14.72;56.47;95720.19;5082775;28;20476;-84
2021/10/29 06:42:49;;;;;;;35.40;14.17;;;;;;;14.80;56.28;95723.03;5088222;28;20505;-82
2021/10/29 06:45:39;;;;;;;19.73;12.57;;;;;;;14.89;56.04;95716.06;5055857;28;21100;-82
2021/10/29 06:48:18;;;;;;;17.67;13.23;;;;;;;15.01;56.27;95714.97;5088672;28;20486;-82
2021/10/29 06:59:19;;;;;;;19.97;13.77;;;;;;;14.84;60.92;95713.84;5049956;28;20495;-85
2021/10/29 07:01:52;;;;;;;17.87;12.80;;;;;;;14.46;59.70;95705.81;4975885;28;20455;-84
2021/10/29 07:04:42;;;;;;;20.67;12.50;;;;;;;14.23;61.89;95702.50;4974361;28;20475;-85
2021/10/29 07:40:22;;;;;;;22.90;15.03;;;;;;;12.52;66.43;95700.03;4992150;28;20567;-84
2021/10/29 07:42:55;;;;;;;27.73;16.10;;;;;;;12.56;66.62;95696.19;4992195;28;20447;-84
2021/10/29 07:45:24;;;;;;;26.00;16.83;;;;;;;12.61;66.71;95699.28;4991552;28;20484;-84
2021/10/29 07:47:53;;;;;;;18.80;14.47;;;;;;;12.58;67.07;95702.19;4991368;28;20451;-85
2021/10/29 07:50:21;;;;;;;22.00;16.43;;;;;;;12.48;67.44;95703.88;4991500;28;20497;-84
2021/10/29 07:52:51;;;;;;;25.13;15.43;;;;;;;12.12;68.04;95702.31;4958622;28;20451;-84
2021/10/29 07:55:20;;;;;;;34.20;15.27;;;;;;;12.24;69.28;95702.22;4959012;28;20472;-84
2021/10/29 07:57:47;;;;;;;21.47;14.27;;;;;;;12.21;69.15;95699.00;4986394;28;20952;-84
2021/10/29 08:00:17;;;;;;;26.47;14.57;;;;;;;12.21;69.31;95702.47;5018162;28;20887;-85
2021/10/29 08:02:44;;;;;;;15.50;11.43;;;;;;;12.16;68.86;95690.63;5084657;28;20526;-84
2021/10/29 08:05:13;;;;;;;16.47;11.80;;;;;;;12.19;68.41;95693.00;5060728;28;20488;-84
2021/10/29 08:07:40;;;;;;;17.37;12.27;;;;;;;12.23;69.61;95689.19;5095672;28;20482;-84
2021/10/29 08:10:10;;;;;;;18.47;11.27;;;;;;;12.26;68.74;95699.47;5095819;28;20798;-84
2021/10/29 08:12:38;;;;;;;16.53;12.67;;;;;;;12.38;69.31;95696.69;5095453;28;20464;-84
2021/10/29 08:15:08;;;;;;;15.80;11.43;;;;;;;12.39;69.56;95690.47;5095582;28;20444;-84
2021/10/29 08:17:36;;;;;;;14.43;11.77;;;;;;;12.52;68.63;95685.06;5095766;28;20531;-84
2021/10/29 08:20:05;;;;;;;17.50;12.07;;;;;;;12.67;68.73;95685.63;5095480;28;20445;-84
2021/10/29 08:22:35;;;;;;;16.87;13.13;;;;;;;12.83;67.60;95677.34;5095692;28;20871;-84
2021/10/29 08:25:04;;;;;;;12.80;10.80;;;;;;;12.99;67.24;95681.22;5044167;28;20572;-85
2021/10/29 08:27:31;;;;;;;19.27;12.30;;;;;;;13.19;66.21;95681.44;5095471;28;20437;-85
2021/10/29 08:30:04;;;;;;;13.13;11.53;;;;;;;13.32;65.60;95674.19;5096067;28;20444;-86
2021/10/29 08:32:31;;;;;;;15.13;11.07;;;;;;;13.42;64.95;95685.63;5095093;28;20531;-84
2021/10/29 08:34:57;;;;;;;14.90;12.17;;;;;;;13.46;65.98;95681.78;5095750;28;20444;-81
2021/10/29 08:37:28;;;;;;;19.37;11.57;;;;;;;13.60;64.87;95678.00;5094710;28;20462;-80
2021/10/29 08:39:57;;;;;;;13.60;9.83;;;;;;;13.70;63.94;95668.34;5094712;28;20448;-78
2021/10/29 08:42:24;;;;;;;20.20;12.93;;;;;;;13.91;63.76;95674.44;5094418;28;20529;-79
2021/10/29 08:44:51;;;;;;;13.40;10.33;;;;;;;14.06;62.63;95664.34;5094969;28;20570;-79
2021/10/29 08:47:21;;;;;;;14.23;10.27;;;;;;;14.13;62.36;95665.47;5094344;28;20519;-78
2021/10/29 08:49:50;;;;;;;19.33;11.70;;;;;;;14.20;62.03;95668.44;5073981;28;20994;-79
2021/10/29 08:52:21;;;;;;;15.93;10.40;;;;;;;14.24;62.52;95660.13;5073717;28;20859;-78
2021/10/29 08:54:49;;;;;;;17.33;11.77;;;;;;;14.39;61.34;95659.75;5073926;28;20947;-78
2021/10/29 08:57:17;;;;;;;22.67;10.40;;;;;;;14.43;60.68;95655.88;5074240;28;20442;-78
2021/10/29 08:59:49;;;;;;;18.17;15.10;;;;;;;14.54;60.65;95664.56;5094252;28;20531;-78
2021/10/29 09:02:19;;;;;;;15.50;10.00;;;;;;;14.67;60.11;95656.38;5100074;28;20483;-78
2021/10/29 09:04:51;;;;;;;17.13;10.03;;;;;;;14.82;59.42;95660.31;5114572;28;21023;-79
2021/10/29 09:10:31;;;;;;;10.90;9.80;;;;;;;15.02;58.34;95657.66;5052630;28;20438;-84
2021/10/29 09:32:33;;;;;;;17.40;12.67;;;;;;;15.45;55.40;95631.63;5012445;28;20482;-79
2021/10/29 09:35:04;;;;;;;13.80;11.30;;;;;;;15.60;54.42;95632.03;5012366;28;20927;-84
2021/10/29 09:37:38;;;;;;;10.37;9.30;;;;;;;15.65;53.96;95635.13;5011915;28;20450;-85
2021/10/29 09:40:12;;;;;;;10.97;9.90;;;;;;;15.63;53.31;95626.50;5011852;28;20976;-85
2021/10/29 09:42:41;;;;;;;16.20;13.50;;;;;;;15.77;53.85;95622.53;5012201;28;20452;-85
2021/10/29 09:45:17;;;;;;;12.67;9.57;;;;;;;15.80;53.33;95622.25;5012818;28;20527;-86
2021/10/29 09:47:52;;;;;;;11.47;9.50;;;;;;;15.83;52.78;95623.78;4995418;28;20591;-86
2021/10/29 09:50:32;;;;;;;20.07;9.20;;;;;;;15.90;51.40;95628.38;5031943;28;20443;-85
2021/10/29 09:53:12;;;;;;;13.03;9.47;;;;;;;15.94;51.44;95613.03;5031411;28;20445;-81
2021/10/29 09:55:53;;;;;;;13.47;8.97;;;;;;;15.97;50.91;95616.22;5087303;28;20446;-82
2021/10/29 09:58:20;;;;;;;10.03;7.30;;;;;;;16.01;50.21;95614.09;5114452;28;21020;-80
2021/10/29 10:00:50;;;;;;;11.47;8.10;;;;;;;15.97;49.48;95607.44;5103534;28;20440;-80
2021/10/29 10:03:21;;;;;;;16.70;10.87;;;;;;;16.08;50.02;95602.78;5113775;28;20450;-81
2021/10/29 10:05:48;;;;;;;15.10;8.95;;;;;;;16.08;49.21;95594.84;5113386;28;20446;-84
2021/10/29 10:08:19;;;;;;;8.97;7.20;;;;;;;16.28;49.54;95603.53;5113775;28;20197;-83
2021/10/29 10:10:50;;;;;;;7.93;6.63;;;;;;;16.29;48.31;95596.41;5113891;28;20432;-83
2021/10/29 10:13:18;;;;;;;9.77;6.60;;;;;;;16.03;48.00;95597.09;5114175;28;20487;-83
2021/10/29 10:15:50;;;;;;;7.80;7.00;;;;;;;15.67;49.18;95590.00;5113482;28;20444;-82
2021/10/29 10:18:21;;;;;;;10.50;5.60;;;;;;;15.56;44.94;95598.03;5113372;28;20442;-82
2021/10/29 10:20:50;;;;;;;9.13;6.03;;;;;;;15.78;45.79;95581.88;5113359;28;20478;-85
2021/10/29 10:23:21;;;;;;;6.33;5.37;;;;;;;15.55;41.48;95572.56;5115341;28;20447;-87
2021/10/29 10:29:17;;;;;;;15.70;7.10;;;;;;;15.71;46.35;95578.97;5062616;28;20804;-86
2021/10/29 10:44:17;;;;;;;6.90;5.43;;;;;;;15.80;40.37;95556.09;5051611;28;20434;-81
2021/10/29 10:46:48;;;;;;;8.98;5.03;;;;;;;16.29;48.03;95551.41;5001517;28;20476;-82
2021/10/29 10:49:19;;;;;;;7.23;4.70;;;;;;;16.88;61.14;95555.31;5051647;28;20191;-83
2021/10/29 10:51:52;;;;;;;4.13;3.73;;;;;;;17.09;41.95;95555.00;5051856;28;20461;-84
2021/10/29 10:54:32;;;;;;;8.57;6.10;;;;;;;16.93;44.66;95542.44;5052246;28;20940;-83
2021/10/29 10:57:10;;;;;;;4.83;4.37;;;;;;;17.06;42.77;95548.19;5052862;28;21025;-88
2021/10/29 10:59:46;;;;;;;4.27;3.87;;;;;;;16.91;37.11;95542.59;5081623;28;20451;-88
2021/10/29 11:05:22;;;;;;;7.17;4.57;;;;;;;16.34;37.16;95531.41;5052732;28;20948;-85
2021/10/29 11:10:31;;;;;;;5.13;4.60;;;;;;;16.20;36.83;95531.94;4954072;29;20424;-84
2021/10/29 11:13:12;;;;;;;5.33;3.67;;;;;;;16.30;35.42;95519.47;4952162;29;20818;-85
2021/10/29 11:15:40;;;;;;;5.20;4.33;;;;;;;16.34;33.94;95520.81;4952110;29;20458;-82
2021/10/29 11:18:29;;;;;;;9.80;3.70;;;;;;;16.16;34.37;95516.47;4952221;29;20542;-83
2021/10/29 11:21:13;;;;;;;3.70;3.10;;;;;;;16.20;34.28;95520.50;4956417;29;20447;-86
2021/10/29 11:23:50;;;;;;;4.10;3.33;;;;;;;16.19;34.04;95518.81;4952701;29;20913;-83
2021/10/29 11:26:25;;;;;;;25.17;5.43;;;;;;;16.32;34.88;95506.06;4952386;29;20518;-83
2021/10/29 11:28:54;;;;;;;3.57;3.27;;;;;;;16.39;33.02;95505.31;4951942;29;20438;-84
2021/10/29 11:31:25;;;;;;;11.27;6.90;;;;;;;16.36;33.34;95512.72;4952475;29;20462;-83
2021/10/29 11:33:58;;;;;;;5.27;3.60;;;;;;;16.29;32.88;95509.84;4952707;29;20532;-84
2021/10/29 11:36:27;;;;;;;4.27;3.70;;;;;;;16.35;32.97;95489.88;4923172;29;20478;-85
2021/10/29 11:38:55;;;;;;;5.60;2.83;;;;;;;16.18;32.48;95491.50;4955593;29;20453;-84
2021/10/29 11:41:24;;;;;;;3.00;2.70;;;;;;;16.19;32.43;95492.34;4964940;28;20966;-85
2021/10/29 11:43:52;;;;;;;3.00;2.70;;;;;;;16.28;32.91;95484.34;5014679;28;20459;-85
2021/10/29 11:46:24;;;;;;;3.23;2.93;;;;;;;16.26;32.97;95485.47;5014149;28;20475;-84
2021/10/29 11:49:02;;;;;;;4.33;2.93;;;;;;;16.22;32.73;95487.59;5089719;28;20459;-85
2021/10/29 11:51:30;;;;;;;3.70;3.20;;;;;;;16.21;33.47;95482.47;5096426;28;20452;-84
2021/10/29 11:54:01;;;;;;;7.40;3.17;;;;;;;16.21;33.10;95493.88;5096471;28;20444;-83
2021/10/29 11:56:39;;;;;;;8.00;2.90;;;;;;;16.23;33.43;95481.31;5096605;28;20464;-82
2021/10/29 12:02:03;;;;;;;3.60;3.00;;;;;;;16.11;33.29;95478.03;5034301;28;20431;-83
2021/10/29 12:07:19;;;;;;;4.60;2.97;;;;;;;16.16;33.20;95469.63;5033800;28;20438;-84
2021/10/29 12:09:47;;;;;;;4.13;3.40;;;;;;;16.25;33.07;95470.56;5033010;28;20941;-83
2021/10/29 12:12:18;;;;;;;3.60;2.80;;;;;;;16.19;32.53;95468.50;5033239;28;20462;-84
2021/10/29 12:14:47;;;;;;;5.43;2.80;;;;;;;16.24;32.88;95471.56;5033483;28;20443;-84
2021/10/29 12:17:21;;;;;;;3.30;3.00;;;;;;;16.24;32.37;95471.56;5033827;28;20449;-84
2021/10/29 12:19:51;;;;;;;4.23;2.80;;;;;;;16.22;32.19;95469.06;5034187;28;20497;-84
2021/10/29 12:22:29;;;;;;;7.77;3.23;;;;;;;16.27;32.76;95477.38;5045616;28;20449;-86
2021/10/29 12:25:00;;;;;;;4.40;3.57;;;;;;;16.31;32.13;95467.31;5055306;28;20482;-84
2021/10/29 12:27:33;;;;;;;3.33;3.03;;;;;;;16.14;32.07;95465.47;5054882;28;20974;-84
2021/10/29 12:30:33;;;;;;;3.47;3.17;;;;;;;16.24;33.43;95461.81;5055191;28;20452;-89
2021/10/29 13:03:42;;;;;;;6.10;2.93;;;;;;;16.17;32.44;95475.78;5033917;28;20461;-84
2021/10/29 13:06:10;;;;;;;5.33;3.13;;;;;;;16.15;32.07;95469.78;5033805;28;20482;-84
2021/10/29 13:08:39;;;;;;;5.37;2.60;;;;;;;16.26;31.46;95472.25;5036798;28;20443;-83
2021/10/29 13:11:07;;;;;;;4.17;3.30;;;;;;;16.23;30.97;95464.59;5096133;28;20962;-84
2021/10/29 13:13:39;;;;;;;2.97;2.67;;;;;;;16.03;30.29;95467.38;5096767;28;20476;-82
2021/10/29 13:16:08;;;;;;;13.43;4.90;;;;;;;16.06;31.17;95453.84;5096520;28;20444;-83
2021/10/29 13:22:11;;;;;;;3.40;2.67;;;;;;;15.91;31.40;95463.28;5095027;28;21144;-82
2021/10/29 13:54:54;;;;;;;4.70;3.13;;;;;;;15.51;31.82;95460.94;4880638;29;20427;-85
2021/10/29 13:57:47;;;;;;;8.47;4.27;;;;;;;15.53;31.96;95460.78;4880279;29;20602;-85
2021/10/29 14:00:45;;;;;;;9.50;3.70;;;;;;;15.52;31.90;95464.41;4879682;29;20451;-86
2021/10/29 14:03:46;;;;;;;4.77;3.60;;;;;;;15.43;32.13;95468.78;4880470;29;20458;-85
2021/10/29 14:30:59;;;;;;;10.43;3.77;;;;;;;15.41;32.58;95460.97;4932698;28;20445;-84
2021/10/29 14:33:29;;;;;;;8.30;3.93;;;;;;;15.34;32.71;95459.91;5034026;28;20462;-85
2021/10/29 14:35:58;;;;;;;16.47;4.80;;;;;;;15.37;33.58;95467.53;5033632;28;20455;-88
2021/10/29 14:38:34;;;;;;;19.97;4.23;;;;;;;15.24;31.98;95474.13;4985327;28;20475;-83
2021/10/29 14:41:04;;;;;;;8.53;3.40;;;;;;;15.12;35.76;95463.72;5032582;28;20439;-83
2021/10/29 14:43:35;;;;;;;7.73;3.10;;;;;;;15.03;32.32;95442.59;5033583;28;21009;-88
2021/10/29 14:46:11;;;;;;;5.50;2.97;;;;;;;14.90;32.03;95445.56;5034135;28;20536;-88